sensor_id;sensor_type;location;lat;lon;timestamp;pressure;altitude;pressure_sealevel;temperature;humidity
21359;BME280;13506;50.852;20.632;2023-08-08T00:01:00;97667.78;;;14.05;100.00
21359;BME280;13506;50.852;20.632;2023-08-08T00:03:35;97656.63;;;14.11;100.00
21359;BME280;13506;50.852;20.632;2023-08-08T00:06:05;97672.56;;;14.09;100.00
21359;BME280;13506;50.852;20.632;2023-08-08T00:08:33;97669.41;;;14.06;100.00
21359;BME280;13506;50.852;20.632;2023-08-08T00:11:01;97668.75;;;14.04;100.00
21359;BME280;13506;50.852;20.632;2023-08-08T00:13:29;97674.00;;;14.04;100.00
21359;BME280;13506;50.852;20.632;2023-08-08T00:15:58;97662.50;;;14.05;100.00
21359;BME280;13506;50.852;20.632;2023-08-08T00:18:26;97676.03;;;14.10;100.00
21359;BME280;13506;50.852;20.632;2023-08-08T00:20:54;97664.28;;;14.04;100.00
21359;BME280;13506;50.852;20.632;2023-08-08T00:23:24;97675.50;;;14.06;100.00
21359;BME280;13506;50.852;20.632;2023-08-08T00:25:52;97671.06;;;14.07;100.00
21359;BME280;13506;50.852;20.632;2023-08-08T00:28:20;97691.13;;;14.08;100.00
21359;BME280;13506;50.852;20.632;2023-08-08T00:30:48;97679.63;;;14.09;100.00
21359;BME280;13506;50.852;20.632;2023-08-08T00:33:16;97679.94;;;14.06;100.00
21359;BME280;13506;50.852;20.632;2023-08-08T00:35:45;97685.19;;;14.06;100.00
21359;BME280;13506;50.852;20.632;2023-08-08T00:38:13;97683.56;;;14.05;100.00
21359;BME280;13506;50.852;20.632;2023-08-08T00:40:43;97684.06;;;14.08;100.00
21359;BME280;13506;50.852;20.632;2023-08-08T00:43:11;97684.38;;;14.05;100.00
21359;BME280;13506;50.852;20.632;2023-08-08T00:45:40;97687.16;;;14.04;100.00
21359;BME280;13506;50.852;20.632;2023-08-08T00:48:10;97687.75;;;13.97;100.00
21359;BME280;13506;50.852;20.632;2023-08-08T00:50:43;97682.88;;;14.03;100.00
21359;BME280;13506;50.852;20.632;2023-08-08T00:53:12;97689.47;;;14.07;100.00
21359;BME280;13506;50.852;20.632;2023-08-08T00:55:42;97690.59;;;14.04;100.00
21359;BME280;13506;50.852;20.632;2023-08-08T00:58:10;97685.19;;;14.06;100.00
21359;BME280;13506;50.852;20.632;2023-08-08T01:00:39;97693.41;;;14.03;100.00
21359;BME280;13506;50.852;20.632;2023-08-08T01:03:07;97700.44;;;14.02;100.00
21359;BME280;13506;50.852;20.632;2023-08-08T01:05:41;97689.41;;;13.98;100.00
21359;BME280;13506;50.852;20.632;2023-08-08T01:08:15;97692.84;;;13.99;100.00
21359;BME280;13506;50.852;20.632;2023-08-08T01:10:45;97698.25;;;13.97;100.00
21359;BME280;13506;50.852;20.632;2023-08-08T01:13:17;97698.25;;;13.97;100.00
21359;BME280;13506;50.852;20.632;2023-08-08T01:15:49;97698.84;;;13.91;100.00
21359;BME280;13506;50.852;20.632;2023-08-08T01:18:18;97702.47;;;13.90;100.00
21359;BME280;13506;50.852;20.632;2023-08-08T01:20:47;97709.97;;;13.85;100.00
21359;BME280;13506;50.852;20.632;2023-08-08T01:23:19;97715.06;;;13.87;100.00
21359;BME280;13506;50.852;20.632;2023-08-08T01:25:52;97716.19;;;13.84;100.00
21359;BME280;13506;50.852;20.632;2023-08-08T01:28:21;97709.28;;;13.83;100.00
21359;BME280;13506;50.852;20.632;2023-08-08T01:30:50;97710.53;;;13.79;100.00
21359;BME280;13506;50.852;20.632;2023-08-08T01:33:19;97723.69;;;13.79;100.00
21359;BME280;13506;50.852;20.632;2023-08-08T01:35:52;97721.50;;;13.74;100.00
21359;BME280;13506;50.852;20.632;2023-08-08T01:38:26;97729.97;;;13.68;100.00
21359;BME280;13506;50.852;20.632;2023-08-08T01:41:00;97740.09;;;13.63;100.00
21359;BME280;13506;50.852;20.632;2023-08-08T01:43:30;97725.28;;;13.62;100.00
21359;BME280;13506;50.852;20.632;2023-08-08T01:46:00;97745.50;;;13.62;100.00
21359;BME280;13506;50.852;20.632;2023-08-08T01:48:28;97742.50;;;13.56;100.00
21359;BME280;13506;50.852;20.632;2023-08-08T01:50:57;97733.94;;;13.54;100.00
21359;BME280;13506;50.852;20.632;2023-08-08T01:53:25;97747.50;;;13.50;100.00
21359;BME280;13506;50.852;20.632;2023-08-08T01:55:54;97748.47;;;13.49;100.00
21359;BME280;13506;50.852;20.632;2023-08-08T01:58:23;97750.03;;;13.42;100.00
21359;BME280;13506;50.852;20.632;2023-08-08T02:00:51;97737.03;;;13.40;100.00
21359;BME280;13506;50.852;20.632;2023-08-08T02:03:19;97744.66;;;13.33;100.00
21359;BME280;13506;50.852;20.632;2023-08-08T02:05:48;97747.56;;;13.30;100.00
21359;BME280;13506;50.852;20.632;2023-08-08T02:08:16;97749.47;;;13.28;100.00
21359;BME280;13506;50.852;20.632;2023-08-08T02:10:45;97756.84;;;13.15;100.00
21359;BME280;13506;50.852;20.632;2023-08-08T02:13:12;97762.38;;;13.12;100.00
21359;BME280;13506;50.852;20.632;2023-08-08T02:15:42;97758.78;;;13.13;99.97
21359;BME280;13506;50.852;20.632;2023-08-08T02:18:10;97769.56;;;13.10;100.00
21359;BME280;13506;50.852;20.632;2023-08-08T02:20:39;97768.03;;;13.07;100.00
21359;BME280;13506;50.852;20.632;2023-08-08T02:23:07;97770.94;;;13.04;100.00
21359;BME280;13506;50.852;20.632;2023-08-08T02:25:35;97769.44;;;13.02;100.00
21359;BME280;13506;50.852;20.632;2023-08-08T02:28:04;97767.63;;;13.02;100.00
21359;BME280;13506;50.852;20.632;2023-08-08T02:30:32;97770.00;;;13.05;99.79
21359;BME280;13506;50.852;20.632;2023-08-08T02:33:01;97774.13;;;12.98;99.87
21359;BME280;13506;50.852;20.632;2023-08-08T02:35:30;97774.69;;;12.92;99.26
21359;BME280;13506;50.852;20.632;2023-08-08T02:37:57;97790.88;;;12.87;99.52
21359;BME280;13506;50.852;20.632;2023-08-08T02:40:26;97796.53;;;12.83;99.95
21359;BME280;13506;50.852;20.632;2023-08-08T02:42:54;97788.66;;;12.83;99.77
21359;BME280;13506;50.852;20.632;2023-08-08T02:45:22;97789.63;;;12.82;99.87
21359;BME280;13506;50.852;20.632;2023-08-08T02:47:50;97795.16;;;12.78;99.53
21359;BME280;13506;50.852;20.632;2023-08-08T02:50:21;97802.06;;;12.79;99.47
21359;BME280;13506;50.852;20.632;2023-08-08T02:52:49;97799.84;;;12.75;99.64
21359;BME280;13506;50.852;20.632;2023-08-08T02:55:21;97807.59;;;12.76;99.42
21359;BME280;13506;50.852;20.632;2023-08-08T02:57:51;97813.78;;;12.75;99.40
21359;BME280;13506;50.852;20.632;2023-08-08T03:00:19;97813.13;;;12.73;98.91
21359;BME280;13506;50.852;20.632;2023-08-08T03:02:50;97818.66;;;12.70;98.47
21359;BME280;13506;50.852;20.632;2023-08-08T03:05:20;97820.31;;;12.71;98.82
21359;BME280;13506;50.852;20.632;2023-08-08T03:07:49;97820.31;;;12.71;99.23
21359;BME280;13506;50.852;20.632;2023-08-08T03:10:19;97814.38;;;12.69;98.41
21359;BME280;13506;50.852;20.632;2023-08-08T03:12:48;97822.25;;;12.69;98.45
21359;BME280;13506;50.852;20.632;2023-08-08T03:15:16;97831.91;;;12.69;97.53
21359;BME280;13506;50.852;20.632;2023-08-08T03:17:44;97834.38;;;12.70;97.52
21359;BME280;13506;50.852;20.632;2023-08-08T03:20:13;97831.91;;;12.69;97.48
21359;BME280;13506;50.852;20.632;2023-08-08T03:22:42;97828.88;;;12.64;97.45
21359;BME280;13506;50.852;20.632;2023-08-08T03:25:10;97835.75;;;12.65;98.16
21359;BME280;13506;50.852;20.632;2023-08-08T03:27:38;97844.63;;;12.64;97.57
21359;BME280;13506;50.852;20.632;2023-08-08T03:30:09;97846.81;;;12.68;97.74
21359;BME280;13506;50.852;20.632;2023-08-08T03:32:41;97849.44;;;12.68;97.71
21359;BME280;13506;50.852;20.632;2023-08-08T03:35:09;97848.50;;;12.69;97.22
21359;BME280;13506;50.852;20.632;2023-08-08T03:37:41;97846.00;;;12.68;97.01
21359;BME280;13506;50.852;20.632;2023-08-08T03:40:10;97848.19;;;12.63;97.22
21359;BME280;13506;50.852;20.632;2023-08-08T03:42:40;97851.66;;;12.63;96.84
21359;BME280;13506;50.852;20.632;2023-08-08T03:45:09;97860.34;;;12.64;96.78
21359;BME280;13506;50.852;20.632;2023-08-08T03:47:38;97864.63;;;12.65;96.46
21359;BME280;13506;50.852;20.632;2023-08-08T03:50:08;97860.47;;;12.62;95.98
21359;BME280;13506;50.852;20.632;2023-08-08T03:52:38;97868.66;;;12.59;96.36
21359;BME280;13506;50.852;20.632;2023-08-08T03:55:12;97870.28;;;12.60;96.49
21359;BME280;13506;50.852;20.632;2023-08-08T03:57:40;97874.44;;;12.63;96.28
21359;BME280;13506;50.852;20.632;2023-08-08T04:00:10;97883.84;;;12.65;95.75
21359;BME280;13506;50.852;20.632;2023-08-08T04:02:41;97892.13;;;12.70;96.24
21359;BME280;13506;50.852;20.632;2023-08-08T04:05:10;97889.38;;;12.72;96.12
21359;BME280;13506;50.852;20.632;2023-08-08T04:07:38;97886.34;;;12.76;95.45
21359;BME280;13506;50.852;20.632;2023-08-08T04:10:08;97892.41;;;12.77;95.35
21359;BME280;13506;50.852;20.632;2023-08-08T04:12:37;97889.13;;;12.85;95.24
21359;BME280;13506;50.852;20.632;2023-08-08T04:15:06;97899.50;;;12.86;95.27
21359;BME280;13506;50.852;20.632;2023-08-08T04:17:34;97898.78;;;12.94;94.84
21359;BME280;13506;50.852;20.632;2023-08-08T04:20:04;97892.44;;;13.06;94.52
21359;BME280;13506;50.852;20.632;2023-08-08T04:22:33;97902.66;;;13.09;93.81
21359;BME280;13506;50.852;20.632;2023-08-08T04:25:03;97900.47;;;13.14;93.80
21359;BME280;13506;50.852;20.632;2023-08-08T04:27:31;97908.34;;;13.14;93.53
21359;BME280;13506;50.852;20.632;2023-08-08T04:30:01;97913.56;;;13.24;93.57
21359;BME280;13506;50.852;20.632;2023-08-08T04:32:29;97913.56;;;13.24;93.58
21359;BME280;13506;50.852;20.632;2023-08-08T04:34:57;97918.44;;;13.29;92.93
21359;BME280;13506;50.852;20.632;2023-08-08T04:37:25;97926.31;;;13.29;92.65
21359;BME280;13506;50.852;20.632;2023-08-08T04:39:54;97917.59;;;13.28;92.97
21359;BME280;13506;50.852;20.632;2023-08-08T04:42:22;97927.41;;;13.26;93.46
21359;BME280;13506;50.852;20.632;2023-08-08T04:44:50;97918.44;;;13.29;93.52
21359;BME280;13506;50.852;20.632;2023-08-08T04:47:20;97928.94;;;13.29;93.21
21359;BME280;13506;50.852;20.632;2023-08-08T04:49:48;97940.28;;;13.29;93.07
21359;BME280;13506;50.852;20.632;2023-08-08T04:52:16;97955.47;;;13.26;93.23
21359;BME280;13506;50.852;20.632;2023-08-08T04:54:44;97941.66;;;13.24;93.75
21359;BME280;13506;50.852;20.632;2023-08-08T04:57:12;97945.25;;;13.23;93.48
21359;BME280;13506;50.852;20.632;2023-08-08T04:59:40;97950.34;;;13.24;93.82
21359;BME280;13506;50.852;20.632;2023-08-08T05:02:09;97952.44;;;13.21;94.04
21359;BME280;13506;50.852;20.632;2023-08-08T05:04:38;97950.94;;;13.18;93.65
21359;BME280;13506;50.852;20.632;2023-08-08T05:07:06;97957.56;;;13.12;93.25
21359;BME280;13506;50.852;20.632;2023-08-08T05:09:35;97954.66;;;13.06;93.58
21359;BME280;13506;50.852;20.632;2023-08-08T05:12:03;97972.47;;;13.02;93.95
21359;BME280;13506;50.852;20.632;2023-08-08T05:14:32;97966.66;;;13.08;94.15
21359;BME280;13506;50.852;20.632;2023-08-08T05:17:01;97967.94;;;13.14;93.58
21359;BME280;13506;50.852;20.632;2023-08-08T05:19:29;97975.38;;;13.18;93.37
21359;BME280;13506;50.852;20.632;2023-08-08T05:21:59;97978.28;;;13.25;93.04
21359;BME280;13506;50.852;20.632;2023-08-08T05:24:27;97976.78;;;13.32;93.45
21359;BME280;13506;50.852;20.632;2023-08-08T05:26:55;97981.78;;;13.35;92.40
21359;BME280;13506;50.852;20.632;2023-08-08T05:29:24;97979.16;;;13.45;92.17
21359;BME280;13506;50.852;20.632;2023-08-08T05:31:52;97977.66;;;13.52;91.48
21359;BME280;13506;50.852;20.632;2023-08-08T05:34:20;97975.28;;;13.59;91.98
21359;BME280;13506;50.852;20.632;2023-08-08T05:36:48;97975.28;;;13.69;91.10
21359;BME280;13506;50.852;20.632;2023-08-08T05:39:17;97985.91;;;13.77;90.23
21359;BME280;13506;50.852;20.632;2023-08-08T05:41:45;97982.31;;;13.78;90.07
21359;BME280;13506;50.852;20.632;2023-08-08T05:44:13;97985.50;;;13.82;90.21
21359;BME280;13506;50.852;20.632;2023-08-08T05:46:42;97994.06;;;13.93;89.77
21359;BME280;13506;50.852;20.632;2023-08-08T05:49:10;97996.00;;;14.01;89.00
21359;BME280;13506;50.852;20.632;2023-08-08T05:51:39;97992.94;;;14.06;88.22
21359;BME280;13506;50.852;20.632;2023-08-08T05:54:08;98008.69;;;14.15;87.38
21359;BME280;13506;50.852;20.632;2023-08-08T05:56:37;98005.50;;;14.22;86.36
21359;BME280;13506;50.852;20.632;2023-08-08T05:59:06;98000.78;;;14.25;87.29
21359;BME280;13506;50.852;20.632;2023-08-08T06:01:34;98000.91;;;14.33;86.40
21359;BME280;13506;50.852;20.632;2023-08-08T06:04:02;97992.31;;;14.41;85.61
21359;BME280;13506;50.852;20.632;2023-08-08T06:06:30;98008.41;;;14.66;86.24
21359;BME280;13506;50.852;20.632;2023-08-08T06:08:58;98010.44;;;14.81;84.91
21359;BME280;13506;50.852;20.632;2023-08-08T06:11:26;98007.59;;;14.93;84.70
21359;BME280;13506;50.852;20.632;2023-08-08T06:13:56;98014.16;;;15.07;83.48
21359;BME280;13506;50.852;20.632;2023-08-08T06:16:24;98004.22;;;15.18;81.32
21359;BME280;13506;50.852;20.632;2023-08-08T06:18:52;98010.59;;;15.26;80.24
21359;BME280;13506;50.852;20.632;2023-08-08T06:21:21;98011.66;;;15.33;80.33
21359;BME280;13506;50.852;20.632;2023-08-08T06:23:49;97999.94;;;15.45;80.19
21359;BME280;13506;50.852;20.632;2023-08-08T06:26:19;98008.50;;;15.65;80.27
21359;BME280;13506;50.852;20.632;2023-08-08T06:28:48;98007.44;;;15.76;79.33
21359;BME280;13506;50.852;20.632;2023-08-08T06:31:19;98007.56;;;15.92;77.32
21359;BME280;13506;50.852;20.632;2023-08-08T06:33:49;98011.25;;;15.99;75.95
21359;BME280;13506;50.852;20.632;2023-08-08T06:36:17;98019.53;;;16.05;73.38
21359;BME280;13506;50.852;20.632;2023-08-08T06:38:45;98008.31;;;16.02;73.32
21359;BME280;13506;50.852;20.632;2023-08-08T06:41:13;98010.00;;;16.12;73.60
21359;BME280;13506;50.852;20.632;2023-08-08T06:43:41;98023.06;;;16.13;71.97
21359;BME280;13506;50.852;20.632;2023-08-08T06:46:10;98009.56;;;16.16;70.13
21359;BME280;13506;50.852;20.632;2023-08-08T06:48:41;98014.31;;;16.13;70.53
21359;BME280;13506;50.852;20.632;2023-08-08T06:51:09;98015.28;;;16.12;68.61
21359;BME280;13506;50.852;20.632;2023-08-08T06:53:38;98007.50;;;16.28;68.02
21359;BME280;13506;50.852;20.632;2023-08-08T06:56:05;98007.59;;;16.45;67.52
21359;BME280;13506;50.852;20.632;2023-08-08T06:58:34;98013.41;;;16.48;67.64
21359;BME280;13506;50.852;20.632;2023-08-08T07:01:02;98006.06;;;16.68;66.67
21359;BME280;13506;50.852;20.632;2023-08-08T07:03:30;98011.38;;;16.76;65.33
21359;BME280;13506;50.852;20.632;2023-08-08T07:05:59;98005.91;;;16.70;64.88
21359;BME280;13506;50.852;20.632;2023-08-08T07:08:29;98009.25;;;16.88;63.10
21359;BME280;13506;50.852;20.632;2023-08-08T07:10:57;98011.78;;;16.98;61.73
21359;BME280;13506;50.852;20.632;2023-08-08T07:13:26;98019.16;;;17.20;62.20
21359;BME280;13506;50.852;20.632;2023-08-08T07:15:54;98015.69;;;17.28;61.23
21359;BME280;13506;50.852;20.632;2023-08-08T07:18:22;98015.41;;;17.39;60.32
21359;BME280;13506;50.852;20.632;2023-08-08T07:20:50;98013.91;;;17.53;59.09
21359;BME280;13506;50.852;20.632;2023-08-08T07:23:20;98017.22;;;17.47;58.42
21359;BME280;13506;50.852;20.632;2023-08-08T07:25:48;98014.75;;;17.54;60.30
21359;BME280;13506;50.852;20.632;2023-08-08T07:28:17;98024.19;;;17.56;58.66
21359;BME280;13506;50.852;20.632;2023-08-08T07:30:44;98019.72;;;17.57;57.91
21359;BME280;13506;50.852;20.632;2023-08-08T07:33:13;98015.41;;;17.48;58.94
21359;BME280;13506;50.852;20.632;2023-08-08T07:35:41;98020.69;;;17.56;57.53
21359;BME280;13506;50.852;20.632;2023-08-08T07:38:09;98017.59;;;17.60;58.02
21359;BME280;13506;50.852;20.632;2023-08-08T07:40:38;98013.94;;;17.61;56.35
21359;BME280;13506;50.852;20.632;2023-08-08T07:43:07;98021.19;;;17.51;56.66
21359;BME280;13506;50.852;20.632;2023-08-08T07:45:35;98017.22;;;17.55;56.25
21359;BME280;13506;50.852;20.632;2023-08-08T07:48:04;98013.59;;;17.73;56.32
21359;BME280;13506;50.852;20.632;2023-08-08T07:50:32;98021.53;;;17.81;56.77
21359;BME280;13506;50.852;20.632;2023-08-08T07:53:01;98019.72;;;17.90;53.52
21359;BME280;13506;50.852;20.632;2023-08-08T07:55:29;98019.06;;;18.12;54.52
21359;BME280;13506;50.852;20.632;2023-08-08T07:57:59;98017.91;;;18.23;52.18
21359;BME280;13506;50.852;20.632;2023-08-08T08:00:27;98006.63;;;18.29;51.76
21359;BME280;13506;50.852;20.632;2023-08-08T08:02:55;98003.63;;;18.32;51.31
21359;BME280;13506;50.852;20.632;2023-08-08T08:05:23;98014.56;;;18.45;50.02
21359;BME280;13506;50.852;20.632;2023-08-08T08:07:51;98003.28;;;18.52;49.71
21359;BME280;13506;50.852;20.632;2023-08-08T08:10:20;98009.13;;;18.31;49.41
21359;BME280;13506;50.852;20.632;2023-08-08T08:12:48;98009.28;;;18.29;49.99
21359;BME280;13506;50.852;20.632;2023-08-08T08:15:17;98021.53;;;18.30;50.09
21359;BME280;13506;50.852;20.632;2023-08-08T08:17:45;98019.88;;;18.29;50.17
21359;BME280;13506;50.852;20.632;2023-08-08T08:20:13;98013.13;;;18.18;49.48
21359;BME280;13506;50.852;20.632;2023-08-08T08:22:42;98012.94;;;18.28;50.61
21359;BME280;13506;50.852;20.632;2023-08-08T08:25:10;98017.06;;;18.31;49.52
21359;BME280;13506;50.852;20.632;2023-08-08T08:27:38;98012.09;;;18.28;50.62
21359;BME280;13506;50.852;20.632;2023-08-08T08:30:07;98007.00;;;18.26;50.47
21359;BME280;13506;50.852;20.632;2023-08-08T08:32:41;98020.53;;;18.23;51.22
21359;BME280;13506;50.852;20.632;2023-08-08T08:35:09;98020.53;;;18.23;51.22
21359;BME280;13506;50.852;20.632;2023-08-08T08:37:39;98023.03;;;18.16;49.79
21359;BME280;13506;50.852;20.632;2023-08-08T08:40:08;98022.38;;;18.14;48.89
21359;BME280;13506;50.852;20.632;2023-08-08T08:42:39;98024.06;;;18.07;49.50
21359;BME280;13506;50.852;20.632;2023-08-08T08:45:09;98032.31;;;18.04;49.07
21359;BME280;13506;50.852;20.632;2023-08-08T08:47:41;98029.94;;;18.42;48.95
21359;BME280;13506;50.852;20.632;2023-08-08T08:50:11;98014.66;;;18.69;48.18
21359;BME280;13506;50.852;20.632;2023-08-08T08:52:39;98019.44;;;18.81;46.49
21359;BME280;13506;50.852;20.632;2023-08-08T08:55:08;98025.38;;;18.83;44.31
21359;BME280;13506;50.852;20.632;2023-08-08T08:57:38;98028.84;;;18.84;46.00
21359;BME280;13506;50.852;20.632;2023-08-08T09:00:07;98022.50;;;18.93;45.82
21359;BME280;13506;50.852;20.632;2023-08-08T09:02:36;98033.59;;;18.97;44.72
21359;BME280;13506;50.852;20.632;2023-08-08T09:05:06;98034.47;;;19.20;44.73
21359;BME280;13506;50.852;20.632;2023-08-08T09:07:36;98025.91;;;19.41;44.36
21359;BME280;13506;50.852;20.632;2023-08-08T09:10:05;98009.69;;;19.82;44.38
21359;BME280;13506;50.852;20.632;2023-08-08T09:12:34;98023.19;;;20.19;42.83
21359;BME280;13506;50.852;20.632;2023-08-08T09:15:03;98018.72;;;20.34;42.59
21359;BME280;13506;50.852;20.632;2023-08-08T09:17:32;98017.72;;;20.35;42.58
21359;BME280;13506;50.852;20.632;2023-08-08T09:20:01;98031.09;;;20.27;42.24
21359;BME280;13506;50.852;20.632;2023-08-08T09:22:32;98015.59;;;20.31;42.23
21359;BME280;13506;50.852;20.632;2023-08-08T09:25:00;98012.19;;;20.22;41.81
21359;BME280;13506;50.852;20.632;2023-08-08T09:27:30;98014.25;;;20.12;42.24
21359;BME280;13506;50.852;20.632;2023-08-08T09:29:58;98019.13;;;20.08;42.90
21359;BME280;13506;50.852;20.632;2023-08-08T09:32:29;98011.78;;;19.95;42.21
21359;BME280;13506;50.852;20.632;2023-08-08T09:34:58;98025.13;;;19.87;43.06
21359;BME280;13506;50.852;20.632;2023-08-08T09:37:27;98032.59;;;19.60;43.65
21359;BME280;13506;50.852;20.632;2023-08-08T09:40:01;98035.00;;;19.47;44.25
21359;BME280;13506;50.852;20.632;2023-08-08T09:42:30;98025.38;;;19.46;45.06
21359;BME280;13506;50.852;20.632;2023-08-08T09:44:59;98019.22;;;19.54;45.36
21359;BME280;13506;50.852;20.632;2023-08-08T09:47:28;98020.63;;;19.64;44.14
21359;BME280;13506;50.852;20.632;2023-08-08T09:49:59;98023.06;;;19.74;44.83
21359;BME280;13506;50.852;20.632;2023-08-08T09:52:28;98022.53;;;19.79;44.01
21359;BME280;13506;50.852;20.632;2023-08-08T09:54:59;98023.69;;;20.14;42.57
21359;BME280;13506;50.852;20.632;2023-08-08T09:57:27;98007.34;;;20.25;42.09
21359;BME280;13506;50.852;20.632;2023-08-08T09:59:56;98018.69;;;20.19;42.65
21359;BME280;13506;50.852;20.632;2023-08-08T10:02:25;98034.59;;;20.42;42.05
21359;BME280;13506;50.852;20.632;2023-08-08T10:04:54;98006.66;;;20.61;41.62
21359;BME280;13506;50.852;20.632;2023-08-08T10:07:25;98011.66;;;20.71;40.09
21359;BME280;13506;50.852;20.632;2023-08-08T10:09:53;98006.34;;;20.71;40.79
21359;BME280;13506;50.852;20.632;2023-08-08T10:12:23;98002.53;;;20.74;41.30
21359;BME280;13506;50.852;20.632;2023-08-08T10:14:53;98000.53;;;20.61;41.98
21359;BME280;13506;50.852;20.632;2023-08-08T10:17:22;98005.53;;;20.56;42.03
21359;BME280;13506;50.852;20.632;2023-08-08T10:19:51;98007.38;;;20.70;41.24
21359;BME280;13506;50.852;20.632;2023-08-08T10:22:21;98009.38;;;20.83;40.98
21359;BME280;13506;50.852;20.632;2023-08-08T10:24:52;98001.13;;;20.93;40.80
21359;BME280;13506;50.852;20.632;2023-08-08T10:27:34;97999.47;;;20.92;40.99
21359;BME280;13506;50.852;20.632;2023-08-08T10:30:07;97996.34;;;20.88;41.28
21359;BME280;13506;50.852;20.632;2023-08-08T10:32:41;97990.03;;;20.74;40.71
21359;BME280;13506;50.852;20.632;2023-08-08T10:35:10;97988.47;;;20.65;41.07
21359;BME280;13506;50.852;20.632;2023-08-08T10:37:39;98001.34;;;20.61;41.73
21359;BME280;13506;50.852;20.632;2023-08-08T10:40:08;98000.13;;;20.64;41.12
21359;BME280;13506;50.852;20.632;2023-08-08T10:42:43;97996.91;;;20.68;41.81
21359;BME280;13506;50.852;20.632;2023-08-08T10:45:13;97994.97;;;20.92;42.29
21359;BME280;13506;50.852;20.632;2023-08-08T10:47:42;98002.09;;;21.21;41.77
21359;BME280;13506;50.852;20.632;2023-08-08T10:50:14;98002.50;;;21.40;42.04
21359;BME280;13506;50.852;20.632;2023-08-08T10:52:53;98001.22;;;21.57;41.46
21359;BME280;13506;50.852;20.632;2023-08-08T10:55:22;98012.88;;;21.71;41.07
21359;BME280;13506;50.852;20.632;2023-08-08T10:57:56;97995.22;;;21.70;41.56
21359;BME280;13506;50.852;20.632;2023-08-08T11:00:27;97999.59;;;21.56;41.09
21359;BME280;13506;50.852;20.632;2023-08-08T11:02:56;97995.31;;;21.62;39.02
21359;BME280;13506;50.852;20.632;2023-08-08T11:05:27;97991.16;;;21.74;38.50
21359;BME280;13506;50.852;20.632;2023-08-08T11:07:55;97990.00;;;21.83;39.39
21359;BME280;13506;50.852;20.632;2023-08-08T11:10:24;97979.50;;;21.75;39.18
21359;BME280;13506;50.852;20.632;2023-08-08T11:13:00;97991.72;;;21.91;39.27
21359;BME280;13506;50.852;20.632;2023-08-08T11:15:31;97986.75;;;22.09;39.22
21359;BME280;13506;50.852;20.632;2023-08-08T11:18:00;97985.53;;;22.12;38.62
21359;BME280;13506;50.852;20.632;2023-08-08T11:20:31;97997.25;;;22.18;39.33
21359;BME280;13506;50.852;20.632;2023-08-08T11:23:00;97995.88;;;22.00;38.63
21359;BME280;13506;50.852;20.632;2023-08-08T11:25:30;97999.84;;;21.83;39.63
21359;BME280;13506;50.852;20.632;2023-08-08T11:27:59;98001.84;;;21.59;39.58
21359;BME280;13506;50.852;20.632;2023-08-08T11:30:29;97997.09;;;21.33;39.64
21359;BME280;13506;50.852;20.632;2023-08-08T11:32:58;97991.84;;;21.18;39.74
21359;BME280;13506;50.852;20.632;2023-08-08T11:35:26;98001.97;;;20.78;40.25
21359;BME280;13506;50.852;20.632;2023-08-08T11:37:57;97991.97;;;20.65;41.27
21359;BME280;13506;50.852;20.632;2023-08-08T11:40:27;97984.75;;;20.44;42.02
21359;BME280;13506;50.852;20.632;2023-08-08T11:42:56;97981.75;;;20.24;42.82
21359;BME280;13506;50.852;20.632;2023-08-08T11:45:26;97993.31;;;20.17;43.56
21359;BME280;13506;50.852;20.632;2023-08-08T11:47:56;98001.28;;;20.17;43.60
21359;BME280;13506;50.852;20.632;2023-08-08T11:50:25;97995.53;;;20.28;43.64
21359;BME280;13506;50.852;20.632;2023-08-08T11:52:55;97997.94;;;20.38;43.49
21359;BME280;13506;50.852;20.632;2023-08-08T11:55:27;97983.63;;;20.54;43.91
21359;BME280;13506;50.852;20.632;2023-08-08T11:57:56;97999.97;;;20.65;42.30
21359;BME280;13506;50.852;20.632;2023-08-08T12:00:29;97995.94;;;20.70;40.09
21359;BME280;13506;50.852;20.632;2023-08-08T12:02:58;98004.06;;;20.68;41.26
21359;BME280;13506;50.852;20.632;2023-08-08T12:05:28;97989.13;;;20.37;42.04
21359;BME280;13506;50.852;20.632;2023-08-08T12:07:59;98016.91;;;20.12;42.24
21359;BME280;13506;50.852;20.632;2023-08-08T12:10:27;98010.03;;;20.02;43.27
21359;BME280;13506;50.852;20.632;2023-08-08T12:12:56;98016.25;;;19.95;43.70
21359;BME280;13506;50.852;20.632;2023-08-08T12:15:31;98033.47;;;19.76;45.65
21359;BME280;13506;50.852;20.632;2023-08-08T12:17:59;98039.69;;;19.37;49.45
21359;BME280;13506;50.852;20.632;2023-08-08T12:20:29;98061.97;;;19.27;49.47
21359;BME280;13506;50.852;20.632;2023-08-08T12:22:58;98060.34;;;19.18;50.37
21359;BME280;13506;50.852;20.632;2023-08-08T12:25:26;98073.66;;;19.02;52.68
21359;BME280;13506;50.852;20.632;2023-08-08T12:27:55;98074.41;;;18.88;52.66
21359;BME280;13506;50.852;20.632;2023-08-08T12:30:23;98075.75;;;18.67;54.69
21359;BME280;13506;50.852;20.632;2023-08-08T12:32:53;98059.19;;;17.34;64.64
21359;BME280;13506;50.852;20.632;2023-08-08T12:35:21;98050.13;;;17.02;67.61
21359;BME280;13506;50.852;20.632;2023-08-08T12:37:49;98105.44;;;16.95;65.40
21359;BME280;13506;50.852;20.632;2023-08-08T12:40:17;98109.53;;;16.90;66.89
21359;BME280;13506;50.852;20.632;2023-08-08T12:42:45;98096.59;;;16.52;70.95
21359;BME280;13506;50.852;20.632;2023-08-08T12:45:14;98049.22;;;16.51;66.82
21359;BME280;13506;50.852;20.632;2023-08-08T12:47:44;98061.97;;;16.29;61.36
21359;BME280;13506;50.852;20.632;2023-08-08T12:50:14;98060.03;;;15.95;71.33
21359;BME280;13506;50.852;20.632;2023-08-08T12:52:42;98055.78;;;16.02;69.90
21359;BME280;13506;50.852;20.632;2023-08-08T12:55:11;98044.09;;;16.05;74.26
21359;BME280;13506;50.852;20.632;2023-08-08T12:57:41;98042.19;;;16.33;73.09